createdAt,value
2019-03-24T00:00:48.644Z,976.54
2019-03-24T00:01:48.624Z,976.56
2019-03-24T00:02:48.601Z,976.56
2019-03-24T00:03:48.635Z,976.55
2019-03-24T00:04:48.577Z,976.61
2019-03-24T00:05:48.568Z,976.61
2019-03-24T00:06:48.542Z,976.57
2019-03-24T00:07:48.532Z,976.61
2019-03-24T00:08:48.559Z,976.57
2019-03-24T00:09:48.572Z,976.57
2019-03-24T00:10:48.515Z,976.55
2019-03-24T00:11:48.501Z,976.54
2019-03-24T00:12:48.494Z,976.49
2019-03-24T00:13:48.482Z,976.53
2019-03-24T00:14:48.478Z,976.51
2019-03-24T00:15:48.505Z,976.46
2019-03-24T00:16:48.466Z,976.52
2019-03-24T00:17:48.424Z,976.48
2019-03-24T00:18:48.423Z,976.51
2019-03-24T00:19:48.396Z,976.48
2019-03-24T00:20:48.383Z,976.42
2019-03-24T00:21:48.422Z,976.46
2019-03-24T00:22:48.368Z,976.43
2019-03-24T00:23:48.371Z,976.47
2019-03-24T00:24:48.363Z,976.38
2019-03-24T00:25:48.333Z,976.39
2019-03-24T00:26:48.369Z,976.47
2019-03-24T00:27:48.323Z,976.41
2019-03-24T00:28:48.320Z,976.38
2019-03-24T00:29:48.292Z,976.35
2019-03-24T00:30:48.277Z,976.38
2019-03-24T00:31:48.269Z,976.35
2019-03-24T00:32:48.280Z,976.35
2019-03-24T00:33:48.257Z,976.35
2019-03-24T00:34:48.278Z,976.33
2019-03-24T00:35:48.239Z,976.39
2019-03-24T00:36:48.211Z,976.30
2019-03-24T00:37:48.203Z,976.38
2019-03-24T00:38:48.193Z,976.40
2019-03-24T00:39:48.214Z,976.38
2019-03-24T00:40:48.219Z,976.34
2019-03-24T00:41:48.165Z,976.36
2019-03-24T00:42:48.147Z,976.35
2019-03-24T00:43:48.144Z,976.34
2019-03-24T00:44:48.152Z,976.31
2019-03-24T00:45:48.114Z,976.26
2019-03-24T00:46:48.133Z,976.32
2019-03-24T00:47:49.509Z,976.31
2019-03-24T00:48:48.093Z,976.29
2019-03-24T00:49:48.128Z,976.22
2019-03-24T00:50:48.079Z,976.32
2019-03-24T00:51:48.058Z,976.28
2019-03-24T00:52:48.063Z,976.26
2019-03-24T00:53:48.044Z,976.27
2019-03-24T00:54:48.039Z,976.22
2019-03-24T00:55:48.058Z,976.21
2019-03-24T00:56:48.050Z,976.23
2019-03-24T00:57:47.996Z,976.22
2019-03-24T00:58:47.990Z,976.18
2019-03-24T00:59:47.966Z,976.22
2019-03-24T01:00:47.952Z,976.19
2019-03-24T01:01:47.955Z,976.22
2019-03-24T01:02:47.970Z,976.16
2019-03-24T01:03:47.915Z,976.20
2019-03-24T01:04:47.900Z,976.13
2019-03-24T01:05:47.899Z,976.13
2019-03-24T01:06:47.895Z,976.08
2019-03-24T01:07:47.882Z,976.09
2019-03-24T01:08:47.893Z,976.12
2019-03-24T01:09:47.890Z,976.12
2019-03-24T01:10:47.832Z,976.12
2019-03-24T01:11:47.821Z,976.09
2019-03-24T01:12:47.810Z,976.06
2019-03-24T01:13:47.802Z,976.04
2019-03-24T01:14:47.789Z,976.02
2019-03-24T01:15:48.274Z,976.08
2019-03-24T01:16:47.774Z,976.09
2019-03-24T01:17:47.757Z,976.04
2019-03-24T01:18:47.737Z,976.06
2019-03-24T01:19:47.742Z,976.01
2019-03-24T01:20:47.726Z,976.08
2019-03-24T01:21:47.744Z,976.01
2019-03-24T01:22:47.740Z,975.97
2019-03-24T01:23:47.701Z,975.95
2019-03-24T01:24:47.684Z,975.95
2019-03-24T01:25:47.708Z,975.93
2019-03-24T01:26:47.699Z,975.89
2019-03-24T01:27:47.648Z,975.89
2019-03-24T01:28:47.658Z,975.90
2019-03-24T01:29:47.648Z,975.88
2019-03-24T01:30:47.633Z,975.87
2019-03-24T01:31:47.606Z,975.76
2019-03-24T01:32:47.613Z,975.74
2019-03-24T01:33:47.625Z,975.77
2019-03-24T01:34:47.626Z,975.74
2019-03-24T01:35:47.563Z,975.81
2019-03-24T01:36:47.555Z,975.84
2019-03-24T01:37:47.545Z,975.80
2019-03-24T01:38:47.536Z,975.77
2019-03-24T01:39:47.550Z,975.85
2019-03-24T01:40:47.583Z,975.85
2019-03-24T01:41:47.516Z,975.74
2019-03-24T01:42:47.531Z,975.72
2019-03-24T01:43:47.506Z,975.71
2019-03-24T01:44:47.511Z,975.75
2019-03-24T01:45:57.900Z,975.70
2019-03-24T01:46:48.483Z,975.77
2019-03-24T01:47:47.429Z,975.71
2019-03-24T01:48:47.432Z,975.68
2019-03-24T01:49:47.417Z,975.72
2019-03-24T01:50:47.407Z,975.70
2019-03-24T01:51:47.385Z,975.72
2019-03-24T01:52:47.447Z,975.69
2019-03-24T01:53:47.362Z,975.68
2019-03-24T01:54:47.351Z,975.70
2019-03-24T01:55:47.349Z,975.72
2019-03-24T01:56:47.329Z,975.70
2019-03-24T01:57:47.323Z,975.67
2019-03-24T01:58:47.363Z,975.66
2019-03-24T01:59:47.302Z,975.61
2019-03-24T02:00:47.285Z,975.61
2019-03-24T02:01:47.274Z,975.66
2019-03-24T02:02:47.267Z,975.59
2019-03-24T02:03:47.257Z,975.63
2019-03-24T02:04:47.265Z,975.62
2019-03-24T02:05:47.232Z,975.62
2019-03-24T02:06:47.226Z,975.61
2019-03-24T02:07:47.219Z,975.56
2019-03-24T02:08:47.211Z,975.59
2019-03-24T02:09:47.245Z,975.59
2019-03-24T02:10:47.171Z,975.63
2019-03-24T02:11:47.216Z,975.61
2019-03-24T02:12:47.152Z,975.59
2019-03-24T02:13:47.147Z,975.58
2019-03-24T02:14:47.138Z,975.59
2019-03-24T02:15:47.160Z,975.59
2019-03-24T02:16:47.114Z,975.61
2019-03-24T02:17:47.106Z,975.53
2019-03-24T02:18:47.091Z,975.52
2019-03-24T02:19:47.087Z,975.57
2019-03-24T02:20:47.064Z,975.56
2019-03-24T02:21:47.082Z,975.57
2019-03-24T02:22:47.039Z,975.54
2019-03-24T02:23:47.044Z,975.50
2019-03-24T02:24:47.028Z,975.54
2019-03-24T02:25:47.013Z,975.53
2019-03-24T02:26:47.041Z,975.45
2019-03-24T02:27:46.995Z,975.47
2019-03-24T02:28:46.984Z,975.47
2019-03-24T02:29:46.978Z,975.51
2019-03-24T02:30:46.964Z,975.47
2019-03-24T02:31:46.949Z,975.47
2019-03-24T02:32:46.978Z,975.40
2019-03-24T02:33:46.926Z,975.39
2019-03-24T02:34:46.922Z,975.37
2019-03-24T02:35:46.903Z,975.38
2019-03-24T02:36:46.891Z,975.42
2019-03-24T02:37:46.886Z,975.35
2019-03-24T02:38:46.915Z,975.36
2019-03-24T02:39:46.865Z,975.32
2019-03-24T02:40:46.841Z,975.34
2019-03-24T02:41:46.835Z,975.27
2019-03-24T02:42:46.835Z,975.35
2019-03-24T02:43:46.813Z,975.32
2019-03-24T02:44:46.838Z,975.31
2019-03-24T02:45:46.787Z,975.32
2019-03-24T02:46:46.789Z,975.27
2019-03-24T02:47:46.767Z,975.29
2019-03-24T02:48:46.765Z,975.25
2019-03-24T02:49:46.752Z,975.32
2019-03-24T02:50:46.796Z,975.31
2019-03-24T02:51:46.725Z,975.27
2019-03-24T02:52:46.726Z,975.31
2019-03-24T02:53:46.702Z,975.33
2019-03-24T02:54:46.694Z,975.34
2019-03-24T02:55:46.695Z,975.35
2019-03-24T02:56:46.737Z,975.29
2019-03-24T02:57:46.668Z,975.29
2019-03-24T02:58:46.651Z,975.24
2019-03-24T02:59:46.642Z,975.28
2019-03-24T03:00:46.612Z,975.32
2019-03-24T03:01:46.626Z,975.24
2019-03-24T03:02:46.652Z,975.27
2019-03-24T03:03:46.595Z,975.24
2019-03-24T03:04:46.582Z,975.31
2019-03-24T03:05:46.582Z,975.29
2019-03-24T03:06:46.580Z,975.25
2019-03-24T03:07:46.544Z,975.26
2019-03-24T03:08:46.598Z,975.26
2019-03-24T03:09:46.550Z,975.29
2019-03-24T03:10:46.531Z,975.28
2019-03-24T03:11:46.502Z,975.22
2019-03-24T03:12:47.736Z,975.24
2019-03-24T03:13:46.483Z,975.28
2019-03-24T03:14:46.533Z,975.23
2019-03-24T03:15:46.461Z,975.24
2019-03-24T03:16:46.453Z,975.25
2019-03-24T03:17:46.445Z,975.18
2019-03-24T03:18:46.434Z,975.17
2019-03-24T03:19:46.435Z,975.20
2019-03-24T03:20:46.444Z,975.15
2019-03-24T03:21:46.396Z,975.16
2019-03-24T03:22:46.393Z,975.12
2019-03-24T03:23:46.377Z,975.13
2019-03-24T03:24:46.358Z,975.12
2019-03-24T03:25:46.349Z,975.16
2019-03-24T03:26:46.399Z,975.22
2019-03-24T03:27:46.330Z,975.13
2019-03-24T03:28:46.351Z,975.16
2019-03-24T03:29:46.312Z,975.18
2019-03-24T03:30:46.341Z,975.19
2019-03-24T03:31:46.285Z,975.15
2019-03-24T03:32:46.322Z,975.22
2019-03-24T03:33:46.264Z,975.21
2019-03-24T03:34:46.270Z,975.26
2019-03-24T03:35:46.247Z,975.23
2019-03-24T03:36:46.255Z,975.20
2019-03-24T03:37:46.223Z,975.22
2019-03-24T03:38:46.252Z,975.24
2019-03-24T03:39:46.207Z,975.22
2019-03-24T03:40:46.185Z,975.24
2019-03-24T03:41:46.172Z,975.19
2019-03-24T03:42:46.159Z,975.13
2019-03-24T03:43:46.155Z,975.16
2019-03-24T03:44:46.201Z,975.19
2019-03-24T03:45:46.137Z,975.18
2019-03-24T03:46:52.615Z,975.16
2019-03-24T03:47:47.115Z,975.24
2019-03-24T03:48:46.124Z,975.15
2019-03-24T03:49:46.119Z,975.22
2019-03-24T03:50:46.156Z,975.23
2019-03-24T03:51:46.087Z,975.19
2019-03-24T03:52:46.059Z,975.20
2019-03-24T03:53:46.045Z,975.16
2019-03-24T03:54:46.049Z,975.15
2019-03-24T03:55:46.032Z,975.20
2019-03-24T03:56:46.084Z,975.10
2019-03-24T03:57:46.007Z,975.14
2019-03-24T03:58:46.018Z,975.16
2019-03-24T03:59:46.004Z,975.16
2019-03-24T04:00:45.999Z,975.15
2019-03-24T04:01:45.953Z,975.17
2019-03-24T04:02:45.993Z,975.20
2019-03-24T04:03:45.951Z,975.22
2019-03-24T04:04:45.943Z,975.21
2019-03-24T04:05:45.939Z,975.21
2019-03-24T04:06:45.925Z,975.26
2019-03-24T04:07:45.917Z,975.21
2019-03-24T04:08:45.933Z,975.22
2019-03-24T04:09:45.885Z,975.20
2019-03-24T04:10:45.872Z,975.16
2019-03-24T04:11:45.834Z,975.24
2019-03-24T04:12:45.840Z,975.15
2019-03-24T04:13:45.840Z,975.20
2019-03-24T04:14:45.849Z,975.19
2019-03-24T04:15:45.800Z,975.12
2019-03-24T04:16:45.791Z,975.15
2019-03-24T04:17:45.792Z,975.12
2019-03-24T04:18:45.765Z,975.12
2019-03-24T04:19:45.821Z,975.07
2019-03-24T04:20:45.766Z,975.05
2019-03-24T04:21:45.733Z,975.03
2019-03-24T04:22:45.738Z,975.01
2019-03-24T04:23:45.715Z,974.99
2019-03-24T04:24:45.717Z,974.90
2019-03-24T04:25:45.735Z,974.99
2019-03-24T04:26:45.689Z,974.92
2019-03-24T04:27:45.666Z,974.91
2019-03-24T04:28:45.670Z,974.98
2019-03-24T04:29:45.653Z,974.95
2019-03-24T04:30:45.634Z,974.93
2019-03-24T04:31:45.672Z,975.04
2019-03-24T04:32:45.617Z,974.98
2019-03-24T04:33:45.623Z,975.07
2019-03-24T04:34:45.606Z,975.01
2019-03-24T04:35:45.586Z,975.01
2019-03-24T04:36:45.569Z,975.04
2019-03-24T04:37:45.608Z,975.02
2019-03-24T04:38:45.558Z,975.01
2019-03-24T04:39:45.543Z,974.98
2019-03-24T04:40:45.553Z,975.02
2019-03-24T04:41:45.513Z,975.04
2019-03-24T04:42:45.501Z,975.00
2019-03-24T04:43:45.538Z,975.12
2019-03-24T04:44:45.486Z,975.06
2019-03-24T04:45:45.473Z,975.06
2019-03-24T04:46:45.457Z,975.08
2019-03-24T04:47:45.460Z,975.09
2019-03-24T04:48:45.440Z,975.08
2019-03-24T04:49:45.477Z,975.09
2019-03-24T04:50:45.427Z,975.09
2019-03-24T04:51:45.433Z,975.12
2019-03-24T04:52:45.414Z,975.12
2019-03-24T04:53:45.394Z,975.18
2019-03-24T04:54:45.387Z,975.14
2019-03-24T04:55:45.423Z,975.15
2019-03-24T04:56:45.352Z,975.13
2019-03-24T04:57:45.344Z,975.15
2019-03-24T04:58:45.352Z,975.19
2019-03-24T04:59:45.343Z,975.16
2019-03-24T05:00:45.344Z,975.19
2019-03-24T05:01:45.381Z,975.18
2019-03-24T05:02:45.313Z,975.20
2019-03-24T05:03:45.291Z,975.22
2019-03-24T05:04:45.262Z,975.25
2019-03-24T05:05:45.261Z,975.21
2019-03-24T05:06:45.251Z,975.15
2019-03-24T05:07:45.299Z,975.24
2019-03-24T05:08:45.239Z,975.19
2019-03-24T05:09:45.213Z,975.21
2019-03-24T05:10:45.205Z,975.12
2019-03-24T05:11:45.234Z,975.16
2019-03-24T05:12:45.197Z,975.15
2019-03-24T05:13:45.206Z,975.17
2019-03-24T05:14:45.174Z,975.15
2019-03-24T05:15:45.183Z,975.11
2019-03-24T05:16:45.165Z,975.13
2019-03-24T05:17:45.168Z,975.10
2019-03-24T05:18:45.119Z,975.10
2019-03-24T05:19:45.102Z,975.07
2019-03-24T05:20:45.086Z,975.10
2019-03-24T05:21:45.090Z,975.09
2019-03-24T05:22:45.085Z,975.07
2019-03-24T05:23:46.123Z,975.10
2019-03-24T05:24:45.060Z,975.05
2019-03-24T05:25:45.053Z,975.11
2019-03-24T05:26:45.053Z,975.06
2019-03-24T05:27:45.026Z,975.06
2019-03-24T05:28:44.998Z,975.08
2019-03-24T05:29:45.039Z,975.07
2019-03-24T05:30:45.012Z,975.01
2019-03-24T05:31:44.987Z,975.04
2019-03-24T05:32:44.957Z,975.03
2019-03-24T05:33:44.940Z,975.02
2019-03-24T05:34:44.953Z,974.99
2019-03-24T05:35:44.993Z,974.99
2019-03-24T05:36:44.928Z,974.95
2019-03-24T05:37:44.908Z,974.91
2019-03-24T05:38:44.915Z,974.98
2019-03-24T05:39:44.896Z,974.97
2019-03-24T05:40:44.864Z,974.97
2019-03-24T05:41:44.904Z,974.98
2019-03-24T05:42:44.843Z,974.96
2019-03-24T05:43:44.840Z,975.04
2019-03-24T05:44:44.824Z,974.98
2019-03-24T05:45:44.831Z,974.96
2019-03-24T05:46:44.837Z,974.96
2019-03-24T05:47:44.850Z,975.00
2019-03-24T05:48:44.807Z,975.00
2019-03-24T05:49:44.773Z,974.97
2019-03-24T05:50:44.759Z,975.00
2019-03-24T05:51:44.757Z,974.96
2019-03-24T05:52:44.761Z,974.99
2019-03-24T05:53:44.789Z,974.97
2019-03-24T05:54:44.741Z,975.00
2019-03-24T05:55:44.714Z,975.02
2019-03-24T05:56:44.690Z,974.96
2019-03-24T05:57:44.748Z,974.97
2019-03-24T05:58:44.696Z,975.05
2019-03-24T05:59:44.727Z,974.98
2019-03-24T06:00:44.667Z,975.01
2019-03-24T06:01:44.688Z,974.97
2019-03-24T06:02:44.644Z,974.98
2019-03-24T06:03:44.637Z,974.99
2019-03-24T06:04:44.662Z,975.00
2019-03-24T06:05:44.618Z,974.95
2019-03-24T06:06:44.603Z,974.96
2019-03-24T06:07:44.592Z,974.94
2019-03-24T06:08:44.584Z,975.02
2019-03-24T06:09:44.574Z,974.96
2019-03-24T06:10:44.587Z,975.00
2019-03-24T06:11:44.520Z,974.93
2019-03-24T06:12:44.533Z,974.99
2019-03-24T06:13:44.505Z,974.97
2019-03-24T06:14:44.496Z,974.95
2019-03-24T06:15:44.509Z,974.94
2019-03-24T06:16:44.523Z,974.92
2019-03-24T06:17:48.021Z,974.88
2019-03-24T06:18:44.476Z,974.96
2019-03-24T06:19:44.443Z,974.86
2019-03-24T06:20:44.425Z,974.90
2019-03-24T06:21:44.424Z,974.85
2019-03-24T06:22:44.465Z,974.83
2019-03-24T06:23:44.402Z,974.85
2019-03-24T06:24:44.412Z,974.81
2019-03-24T06:25:44.392Z,974.85
2019-03-24T06:26:44.385Z,974.81
2019-03-24T06:27:44.388Z,974.76
2019-03-24T06:28:44.423Z,974.79
2019-03-24T06:29:44.348Z,974.81
2019-03-24T06:30:44.350Z,974.79
2019-03-24T06:31:44.380Z,974.81
2019-03-24T06:32:44.297Z,974.82
2019-03-24T06:33:44.316Z,974.77
2019-03-24T06:34:44.319Z,974.73
2019-03-24T06:35:44.278Z,974.77
2019-03-24T06:36:44.245Z,974.78
2019-03-24T06:37:44.260Z,974.74
2019-03-24T06:38:44.243Z,974.75
2019-03-24T06:39:44.262Z,974.70
2019-03-24T06:40:44.214Z,974.73
2019-03-24T06:41:44.193Z,974.71
2019-03-24T06:42:44.185Z,974.74
2019-03-24T06:43:44.209Z,974.71
2019-03-24T06:44:44.168Z,974.71
2019-03-24T06:45:44.212Z,974.70
2019-03-24T06:46:44.160Z,974.75
2019-03-24T06:47:44.159Z,974.70
2019-03-24T06:48:44.123Z,974.70
2019-03-24T06:49:44.112Z,974.69
2019-03-24T06:50:44.114Z,974.66
2019-03-24T06:51:44.361Z,974.69
2019-03-24T06:52:44.099Z,974.65
2019-03-24T06:53:44.064Z,974.62
2019-03-24T06:54:44.126Z,974.62
2019-03-24T06:55:44.105Z,974.69
2019-03-24T06:56:44.051Z,974.67
2019-03-24T06:57:44.076Z,974.61
2019-03-24T06:58:44.023Z,974.60
2019-03-24T06:59:44.037Z,974.63
2019-03-24T07:00:43.993Z,974.57
2019-03-24T07:01:43.975Z,974.54
2019-03-24T07:02:44.015Z,974.54
2019-03-24T07:03:43.972Z,974.51
2019-03-24T07:04:43.969Z,974.47
2019-03-24T07:05:43.989Z,974.51
2019-03-24T07:06:43.961Z,974.53
2019-03-24T07:07:43.919Z,974.48
2019-03-24T07:08:43.943Z,974.52
2019-03-24T07:09:43.955Z,974.55
2019-03-24T07:10:43.907Z,974.55
2019-03-24T07:11:43.887Z,974.52
2019-03-24T07:12:43.859Z,974.58
2019-03-24T07:13:43.866Z,974.57
2019-03-24T07:14:43.888Z,974.54
2019-03-24T07:15:43.854Z,974.56
2019-03-24T07:16:43.838Z,974.52
2019-03-24T07:17:43.846Z,974.45
2019-03-24T07:18:43.814Z,974.50
2019-03-24T07:19:43.829Z,974.47
2019-03-24T07:20:43.803Z,974.50
2019-03-24T07:21:43.769Z,974.50
2019-03-24T07:22:43.764Z,974.42
2019-03-24T07:23:43.756Z,974.45
2019-03-24T07:24:43.745Z,974.49
2019-03-24T07:25:43.920Z,974.43
2019-03-24T07:26:43.726Z,974.50
2019-03-24T07:27:43.696Z,974.52
2019-03-24T07:28:43.684Z,974.52
2019-03-24T07:29:43.682Z,974.52
2019-03-24T07:30:43.664Z,974.49
2019-03-24T07:31:43.707Z,974.46
2019-03-24T07:32:43.656Z,974.47
2019-03-24T07:33:43.632Z,974.41
2019-03-24T07:34:43.636Z,974.41
2019-03-24T07:35:43.641Z,974.45
2019-03-24T07:36:43.612Z,974.41
2019-03-24T07:37:43.635Z,974.38
2019-03-24T07:38:43.594Z,974.40
2019-03-24T07:39:43.575Z,974.41
2019-03-24T07:40:43.568Z,974.40
2019-03-24T07:41:43.552Z,974.34
2019-03-24T07:42:43.641Z,974.43
2019-03-24T07:43:43.530Z,974.33
2019-03-24T07:44:43.504Z,974.31
2019-03-24T07:45:43.516Z,974.31
2019-03-24T07:46:43.506Z,974.34
2019-03-24T07:47:43.514Z,974.33
2019-03-24T07:48:43.531Z,974.31
2019-03-24T07:49:43.463Z,974.30
2019-03-24T07:50:43.447Z,974.32
2019-03-24T07:51:43.479Z,974.28
2019-03-24T07:52:43.441Z,974.29
2019-03-24T07:53:43.405Z,974.25
2019-03-24T07:54:43.447Z,974.29
2019-03-24T07:55:43.404Z,974.24
2019-03-24T07:56:43.398Z,974.23
2019-03-24T07:57:43.474Z,974.20
2019-03-24T07:58:43.357Z,974.22
2019-03-24T07:59:43.389Z,974.19
2019-03-24T08:00:43.367Z,974.26
2019-03-24T08:01:43.342Z,974.18
2019-03-24T08:02:50.813Z,974.19
2019-03-24T08:03:44.306Z,974.17
2019-03-24T08:04:43.293Z,974.16
2019-03-24T08:05:43.317Z,974.17
2019-03-24T08:06:43.285Z,974.14
2019-03-24T08:07:43.277Z,974.13
2019-03-24T08:08:44.524Z,974.07
2019-03-24T08:09:43.236Z,974.05
2019-03-24T08:10:43.212Z,974.09
2019-03-24T08:11:43.294Z,974.07
2019-03-24T08:12:43.250Z,974.09
2019-03-24T08:13:53.146Z,974.08
2019-03-24T08:14:44.204Z,974.08
2019-03-24T08:15:43.257Z,974.05
2019-03-24T08:16:43.209Z,974.08
2019-03-24T08:17:43.265Z,974.02
2019-03-24T08:18:43.147Z,974.05
2019-03-24T08:19:43.110Z,974.09
2019-03-24T08:20:43.152Z,974.03
2019-03-24T08:21:43.107Z,974.01
2019-03-24T08:22:43.086Z,974.03
2019-03-24T08:23:43.106Z,973.97
2019-03-24T08:24:43.119Z,974.01
2019-03-24T08:25:43.064Z,974.06
2019-03-24T08:26:43.057Z,974.03
2019-03-24T08:27:43.050Z,973.98
2019-03-24T08:28:43.051Z,974.02
2019-03-24T08:29:43.054Z,973.98
2019-03-24T08:30:42.990Z,974.04
2019-03-24T08:31:43.048Z,974.02
2019-03-24T08:32:42.999Z,974.04
2019-03-24T08:33:42.994Z,974.12
2019-03-24T08:34:42.947Z,974.07
2019-03-24T08:35:42.983Z,974.06
2019-03-24T08:36:42.936Z,974.03
2019-03-24T08:37:42.937Z,974.08
2019-03-24T08:38:42.938Z,974.06
2019-03-24T08:39:42.941Z,974.06
2019-03-24T08:40:42.926Z,974.08
2019-03-24T08:41:42.921Z,974.07
2019-03-24T08:42:42.923Z,973.98
2019-03-24T08:43:42.855Z,973.95
2019-03-24T08:44:42.869Z,973.97
2019-03-24T08:45:42.845Z,974.00
2019-03-24T08:46:45.135Z,973.93
2019-03-24T08:47:42.821Z,973.98
2019-03-24T08:48:42.885Z,973.97
2019-03-24T08:49:42.780Z,973.91
2019-03-24T08:50:42.791Z,973.86
2019-03-24T08:51:42.809Z,973.92
2019-03-24T08:52:42.787Z,973.88
2019-03-24T08:53:42.772Z,973.94
2019-03-24T08:54:42.788Z,973.92
2019-03-24T08:55:42.724Z,973.93
2019-03-24T08:56:42.744Z,973.93
2019-03-24T08:57:42.718Z,973.94
2019-03-24T08:58:42.684Z,973.93
2019-03-24T08:59:42.679Z,973.93
2019-03-24T09:00:42.722Z,973.94
2019-03-24T09:01:42.652Z,973.87
2019-03-24T09:02:43.381Z,973.92
2019-03-24T09:03:42.639Z,973.87
2019-03-24T09:04:42.648Z,973.87
2019-03-24T09:05:42.624Z,973.81
2019-03-24T09:06:42.653Z,973.81
2019-03-24T09:07:42.637Z,973.76
2019-03-24T09:08:42.570Z,973.76
2019-03-24T09:09:42.568Z,973.71
2019-03-24T09:10:42.598Z,973.75
2019-03-24T09:11:42.544Z,973.73
2019-03-24T09:12:42.533Z,973.73
2019-03-24T09:13:42.603Z,973.69
2019-03-24T09:14:42.585Z,973.66
2019-03-24T09:15:43.320Z,973.67
2019-03-24T09:16:42.492Z,973.65
2019-03-24T09:17:42.508Z,973.65
2019-03-24T09:18:52.005Z,973.62
2019-03-24T09:19:43.538Z,973.64
2019-03-24T09:20:42.444Z,973.62
2019-03-24T09:21:42.460Z,973.62
2019-03-24T09:22:42.437Z,973.58
2019-03-24T09:23:42.432Z,973.56
2019-03-24T09:24:42.414Z,973.56
2019-03-24T09:25:42.490Z,973.53
2019-03-24T09:26:42.383Z,973.57
2019-03-24T09:27:42.416Z,973.47
2019-03-24T09:28:42.391Z,973.53
2019-03-24T09:29:42.345Z,973.44
2019-03-24T09:30:42.330Z,973.48
2019-03-24T09:31:42.364Z,973.41
2019-03-24T09:32:42.354Z,973.41
2019-03-24T09:33:42.319Z,973.34
2019-03-24T09:34:42.337Z,973.35
2019-03-24T09:35:42.275Z,973.31
2019-03-24T09:36:42.279Z,973.36
2019-03-24T09:37:42.313Z,973.30
2019-03-24T09:38:42.262Z,973.34
2019-03-24T09:39:42.262Z,973.27
2019-03-24T09:40:42.284Z,973.24
2019-03-24T09:41:42.208Z,973.22
2019-03-24T09:42:42.237Z,973.23
2019-03-24T09:43:42.200Z,973.19
2019-03-24T09:44:42.183Z,973.17
2019-03-24T09:45:42.175Z,973.18
2019-03-24T09:46:42.163Z,973.12
2019-03-24T09:47:42.170Z,973.16
2019-03-24T09:48:42.216Z,973.15
2019-03-24T09:49:42.141Z,973.14
2019-03-24T09:50:42.107Z,973.18
2019-03-24T09:51:42.095Z,973.17
2019-03-24T09:52:42.099Z,973.13
2019-03-24T09:53:42.084Z,973.10
2019-03-24T09:54:42.199Z,973.15
2019-03-24T09:55:42.078Z,973.16
2019-03-24T09:56:42.060Z,973.12
2019-03-24T09:57:42.029Z,973.13
2019-03-24T09:58:42.027Z,973.14
2019-03-24T09:59:42.012Z,973.14
2019-03-24T10:00:42.053Z,973.10
2019-03-24T10:01:42.008Z,973.19
2019-03-24T10:02:41.985Z,973.17
2019-03-24T10:03:41.966Z,973.15
2019-03-24T10:04:42.037Z,973.07
2019-03-24T10:05:41.983Z,973.05
2019-03-24T10:06:41.994Z,973.05
2019-03-24T10:07:41.933Z,973.02
2019-03-24T10:08:46.947Z,973.01
2019-03-24T10:09:42.934Z,973.01
2019-03-24T10:10:41.928Z,973.04
2019-03-24T10:11:41.897Z,973.04
2019-03-24T10:12:41.925Z,973.04
2019-03-24T10:13:41.895Z,973.02
2019-03-24T10:14:41.831Z,973.03
2019-03-24T10:15:41.844Z,973.04
2019-03-24T10:16:41.831Z,972.94
2019-03-24T10:17:41.845Z,972.96
2019-03-24T10:18:41.835Z,973.00
2019-03-24T10:19:41.797Z,973.00
2019-03-24T10:20:41.771Z,972.92
2019-03-24T10:21:41.780Z,972.97
2019-03-24T10:22:41.765Z,973.01
2019-03-24T10:23:41.800Z,972.87
2019-03-24T10:24:41.721Z,972.91
2019-03-24T10:25:41.738Z,972.90
2019-03-24T10:26:41.694Z,972.88
2019-03-24T10:27:41.760Z,972.83
2019-03-24T10:28:41.695Z,972.81
2019-03-24T10:29:41.711Z,972.81
2019-03-24T10:30:41.674Z,972.84
2019-03-24T10:31:42.691Z,972.79
2019-03-24T10:32:41.655Z,972.74
2019-03-24T10:33:41.655Z,972.84
2019-03-24T10:34:41.653Z,972.81
2019-03-24T10:35:41.651Z,972.79
2019-03-24T10:36:41.619Z,972.67
2019-03-24T10:37:41.594Z,972.69
2019-03-24T10:38:41.594Z,972.75
2019-03-24T10:39:41.564Z,972.74
2019-03-24T10:40:41.660Z,972.71
2019-03-24T10:41:41.545Z,972.66
2019-03-24T10:42:41.533Z,972.69
2019-03-24T10:43:41.527Z,972.66
2019-03-24T10:44:41.529Z,972.66
2019-03-24T10:45:41.524Z,972.72
2019-03-24T10:46:41.543Z,972.68
2019-03-24T10:47:41.475Z,972.70
2019-03-24T10:48:41.478Z,972.65
2019-03-24T10:49:41.451Z,972.64
2019-03-24T10:50:41.447Z,972.64
2019-03-24T10:51:41.478Z,972.63
2019-03-24T10:52:41.476Z,972.65
2019-03-24T10:53:41.440Z,972.56
2019-03-24T10:54:41.454Z,972.63
2019-03-24T10:55:41.391Z,972.56
2019-03-24T10:56:41.383Z,972.57
2019-03-24T10:57:41.395Z,972.55
2019-03-24T10:58:41.375Z,972.58
2019-03-24T10:59:41.365Z,972.55
2019-03-24T11:00:41.377Z,972.50
2019-03-24T11:01:41.342Z,972.47
2019-03-24T11:02:41.337Z,972.44
2019-03-24T11:03:41.329Z,972.47
2019-03-24T11:04:41.297Z,972.51
2019-03-24T11:05:41.343Z,972.47
2019-03-24T11:06:41.320Z,972.42
2019-03-24T11:07:41.330Z,972.45
2019-03-24T11:08:41.247Z,972.41
2019-03-24T11:09:41.258Z,972.43
2019-03-24T11:10:41.245Z,972.39
2019-03-24T11:11:41.240Z,972.40
2019-03-24T11:12:41.222Z,972.40
2019-03-24T11:13:41.235Z,972.39
2019-03-24T11:14:41.215Z,972.37
2019-03-24T11:15:41.193Z,972.36
2019-03-24T11:16:41.175Z,972.36
2019-03-24T11:17:41.163Z,972.36
2019-03-24T11:18:41.155Z,972.33
2019-03-24T11:19:41.185Z,972.30
2019-03-24T11:20:41.117Z,972.25
2019-03-24T11:21:41.183Z,972.27
2019-03-24T11:22:41.121Z,972.30
2019-03-24T11:23:41.085Z,972.26
2019-03-24T11:24:41.154Z,972.25
2019-03-24T11:25:41.060Z,972.29
2019-03-24T11:26:41.095Z,972.21
2019-03-24T11:27:41.072Z,972.25
2019-03-24T11:28:41.047Z,972.24
2019-03-24T11:29:41.044Z,972.22
2019-03-24T11:30:41.057Z,972.20
2019-03-24T11:31:41.022Z,972.20
2019-03-24T11:32:41.032Z,972.17
2019-03-24T11:33:40.998Z,972.12
2019-03-24T11:34:41.008Z,972.12
2019-03-24T11:35:40.962Z,972.14
2019-03-24T11:36:40.974Z,972.11
2019-03-24T11:37:40.955Z,972.11
2019-03-24T11:38:40.966Z,972.11
2019-03-24T11:39:40.952Z,972.11
2019-03-24T11:40:40.962Z,972.06
2019-03-24T11:41:40.902Z,972.06
2019-03-24T11:42:40.931Z,972.03
2019-03-24T11:43:40.878Z,971.99
2019-03-24T11:44:40.888Z,971.98
2019-03-24T11:45:40.841Z,972.00
2019-03-24T11:46:40.839Z,971.95
2019-03-24T11:47:40.863Z,971.95
2019-03-24T11:48:40.831Z,971.95
2019-03-24T11:49:46.036Z,971.96
2019-03-24T11:50:41.788Z,971.96
2019-03-24T11:51:40.819Z,971.96
2019-03-24T11:52:40.788Z,971.95
2019-03-24T11:53:40.774Z,971.93
2019-03-24T11:54:40.769Z,971.92
2019-03-24T11:55:40.777Z,971.92
2019-03-24T11:56:40.741Z,971.92
2019-03-24T11:57:40.762Z,971.91
2019-03-24T11:58:40.782Z,971.89
2019-03-24T11:59:40.713Z,971.88
2019-03-24T12:00:40.710Z,971.86
2019-03-24T12:01:40.731Z,971.81
2019-03-24T12:02:40.684Z,971.82
2019-03-24T12:03:40.727Z,971.80
2019-03-24T12:04:40.648Z,971.77
2019-03-24T12:05:40.671Z,971.75
2019-03-24T12:06:40.623Z,971.69
2019-03-24T12:07:40.614Z,971.71
2019-03-24T12:08:40.609Z,971.69
2019-03-24T12:09:40.638Z,971.66
2019-03-24T12:10:40.597Z,971.68
2019-03-24T12:11:40.569Z,971.67
2019-03-24T12:12:40.626Z,971.61
2019-03-24T12:13:40.560Z,971.58
2019-03-24T12:14:40.534Z,971.60
2019-03-24T12:15:40.561Z,971.63
2019-03-24T12:16:40.508Z,971.64
2019-03-24T12:17:40.511Z,971.56
2019-03-24T12:18:40.474Z,971.54
2019-03-24T12:19:40.488Z,971.57
2019-03-24T12:20:40.474Z,971.58
2019-03-24T12:21:40.468Z,971.51
2019-03-24T12:22:40.473Z,971.54
2019-03-24T12:23:40.451Z,971.47
2019-03-24T12:24:40.406Z,971.51
2019-03-24T12:25:40.425Z,971.48
2019-03-24T12:26:40.407Z,971.49
2019-03-24T12:27:40.430Z,971.43
2019-03-24T12:28:40.389Z,971.49